sensor_id;sensor_type;location;lat;lon;timestamp;pressure;altitude;pressure_sealevel;temperature;humidity
70458;BME280;57919;56.194;95.716;2023-03-22T00:01:57;100970.97;;;-16.81;60.98
70458;BME280;57919;56.194;95.716;2023-03-22T00:11:59;100973.75;;;-16.58;60.65
70458;BME280;57919;56.194;95.716;2023-03-22T00:22:02;100986.22;;;-16.32;59.76
70458;BME280;57919;56.194;95.716;2023-03-22T00:32:06;100974.94;;;-16.15;59.93
70458;BME280;57919;56.194;95.716;2023-03-22T00:42:08;100978.66;;;-15.71;59.27
70458;BME280;57919;56.194;95.716;2023-03-22T00:52:10;100981.28;;;-15.31;58.25
70458;BME280;57919;56.194;95.716;2023-03-22T01:02:12;100986.38;;;-14.72;57.41
70458;BME280;57919;56.194;95.716;2023-03-22T01:12:18;100982.97;;;-14.26;57.64
70458;BME280;57919;56.194;95.716;2023-03-22T01:22:21;100990.44;;;-14.13;56.43
70458;BME280;57919;56.194;95.716;2023-03-22T01:32:24;100996.16;;;-13.53;56.15
70458;BME280;57919;56.194;95.716;2023-03-22T01:42:26;100985.59;;;-12.02;53.58
70458;BME280;57919;56.194;95.716;2023-03-22T01:52:30;100997.72;;;-11.74;52.32
70458;BME280;57919;56.194;95.716;2023-03-22T02:02:55;101002.03;;;-10.82;51.18
70458;BME280;57919;56.194;95.716;2023-03-22T02:13:14;100999.97;;;-9.46;47.44
70458;BME280;57919;56.194;95.716;2023-03-22T02:34:53;100998.59;;;-7.75;46.17
70458;BME280;57919;56.194;95.716;2023-03-22T02:55:36;101003.22;;;-6.85;43.21
70458;BME280;57919;56.194;95.716;2023-03-22T03:05:44;100999.63;;;-5.97;43.92
70458;BME280;57919;56.194;95.716;2023-03-22T03:15:53;100994.00;;;-4.83;41.00
70458;BME280;57919;56.194;95.716;2023-03-22T03:26:16;100995.75;;;-4.79;40.28
70458;BME280;57919;56.194;95.716;2023-03-22T03:36:21;100999.06;;;-5.41;40.86
70458;BME280;57919;56.194;95.716;2023-03-22T03:46:25;100993.19;;;-4.23;39.21
70458;BME280;57919;56.194;95.716;2023-03-22T03:56:29;100986.94;;;-3.46;39.89
70458;BME280;57919;56.194;95.716;2023-03-22T04:06:32;100973.44;;;-2.89;39.16
70458;BME280;57919;56.194;95.716;2023-03-22T04:16:39;100970.03;;;-1.08;37.51
70458;BME280;57919;56.194;95.716;2023-03-22T04:26:45;100976.72;;;-1.48;36.35
70458;BME280;57919;56.194;95.716;2023-03-22T04:37:13;100969.06;;;-1.01;35.04
70458;BME280;57919;56.194;95.716;2023-03-22T04:47:27;100960.66;;;-2.25;36.78
70458;BME280;57919;56.194;95.716;2023-03-22T04:57:29;100962.50;;;-1.44;35.16
70458;BME280;57919;56.194;95.716;2023-03-22T05:07:31;100943.88;;;-0.72;34.52
70458;BME280;57919;56.194;95.716;2023-03-22T05:17:36;100947.94;;;-1.10;35.13
70458;BME280;57919;56.194;95.716;2023-03-22T05:27:39;100937.44;;;-0.04;34.39
70458;BME280;57919;56.194;95.716;2023-03-22T05:38:08;100911.53;;;0.95;33.11
70458;BME280;57919;56.194;95.716;2023-03-22T05:48:13;100918.19;;;1.53;33.20
70458;BME280;57919;56.194;95.716;2023-03-22T05:58:15;100914.50;;;1.94;32.73
70458;BME280;57919;56.194;95.716;2023-03-22T06:08:21;100915.94;;;2.08;31.50
70458;BME280;57919;56.194;95.716;2023-03-22T06:18:23;100899.13;;;1.33;31.94
70458;BME280;57919;56.194;95.716;2023-03-22T06:28:33;100890.00;;;1.43;31.57
70458;BME280;57919;56.194;95.716;2023-03-22T06:38:36;100889.44;;;1.29;32.18
70458;BME280;57919;56.194;95.716;2023-03-22T06:48:38;100882.00;;;1.43;32.14
70458;BME280;57919;56.194;95.716;2023-03-22T06:58:46;100869.59;;;0.63;31.94
70458;BME280;57919;56.194;95.716;2023-03-22T07:08:48;100869.06;;;0.48;32.58
70458;BME280;57919;56.194;95.716;2023-03-22T07:18:53;100862.16;;;0.38;32.61
70458;BME280;57919;56.194;95.716;2023-03-22T07:28:57;100861.78;;;-0.37;32.79
70458;BME280;57919;56.194;95.716;2023-03-22T07:39:03;100847.09;;;-0.57;33.35
70458;BME280;57919;56.194;95.716;2023-03-22T07:49:13;100855.88;;;-1.11;33.36
70458;BME280;57919;56.194;95.716;2023-03-22T07:59:15;100863.78;;;-1.06;33.51
70458;BME280;57919;56.194;95.716;2023-03-22T08:09:17;100838.13;;;-1.07;33.54
70458;BME280;57919;56.194;95.716;2023-03-22T08:19:19;100832.72;;;-1.00;31.83
70458;BME280;57919;56.194;95.716;2023-03-22T08:29:23;100829.50;;;-1.23;32.10
70458;BME280;57919;56.194;95.716;2023-03-22T08:39:25;100830.63;;;-1.39;32.31
70458;BME280;57919;56.194;95.716;2023-03-22T08:49:50;100822.19;;;-1.69;32.80
70458;BME280;57919;56.194;95.716;2023-03-22T09:00:04;100814.22;;;-1.69;32.33
70458;BME280;57919;56.194;95.716;2023-03-22T09:10:28;100809.00;;;-1.75;33.33
70458;BME280;57919;56.194;95.716;2023-03-22T09:20:31;100799.91;;;-1.55;33.93
70458;BME280;57919;56.194;95.716;2023-03-22T09:30:35;100788.56;;;-1.68;33.76
70458;BME280;57919;56.194;95.716;2023-03-22T09:40:49;100776.53;;;-1.95;33.34
70458;BME280;57919;56.194;95.716;2023-03-22T09:50:53;100778.53;;;-2.12;34.48
70458;BME280;57919;56.194;95.716;2023-03-22T10:01:14;100762.31;;;-2.65;34.29
70458;BME280;57919;56.194;95.716;2023-03-22T10:11:43;100761.59;;;-2.83;35.12
70458;BME280;57919;56.194;95.716;2023-03-22T10:21:49;100760.72;;;-2.82;35.13
70458;BME280;57919;56.194;95.716;2023-03-22T10:31:53;100767.13;;;-3.09;34.72
70458;BME280;57919;56.194;95.716;2023-03-22T10:52:37;100749.75;;;-3.47;35.65
70458;BME280;57919;56.194;95.716;2023-03-22T11:02:52;100752.31;;;-3.33;36.25
70458;BME280;57919;56.194;95.716;2023-03-22T11:23:11;100745.56;;;-3.81;36.55
70458;BME280;57919;56.194;95.716;2023-03-22T11:33:20;100746.53;;;-3.98;36.66
70458;BME280;57919;56.194;95.716;2023-03-22T11:43:26;100747.53;;;-4.26;37.10
70458;BME280;57919;56.194;95.716;2023-03-22T11:53:32;100752.88;;;-4.50;37.65
70458;BME280;57919;56.194;95.716;2023-03-22T12:03:37;100747.66;;;-4.73;37.69
70458;BME280;57919;56.194;95.716;2023-03-22T12:13:53;100742.41;;;-5.04;38.58
70458;BME280;57919;56.194;95.716;2023-03-22T12:24:00;100742.41;;;-5.37;39.43
70458;BME280;57919;56.194;95.716;2023-03-22T12:34:13;100748.56;;;-5.29;39.75
70458;BME280;57919;56.194;95.716;2023-03-22T12:44:17;100745.03;;;-5.49;39.92
70458;BME280;57919;56.194;95.716;2023-03-22T12:54:24;100748.50;;;-5.82;40.69
70458;BME280;57919;56.194;95.716;2023-03-22T13:36:07;100735.81;;;-6.84;42.41
70458;BME280;57919;56.194;95.716;2023-03-22T13:56:57;100727.38;;;-7.53;44.27
70458;BME280;57919;56.194;95.716;2023-03-22T14:07:07;100726.28;;;-7.76;44.14
70458;BME280;57919;56.194;95.716;2023-03-22T14:27:36;100722.78;;;-7.78;45.20
70458;BME280;57919;56.194;95.716;2023-03-22T14:37:38;100710.00;;;-8.28;45.08
70458;BME280;57919;56.194;95.716;2023-03-22T14:47:43;100716.59;;;-8.63;46.16
70458;BME280;57919;56.194;95.716;2023-03-22T14:57:49;100711.97;;;-8.81;45.41
70458;BME280;57919;56.194;95.716;2023-03-22T15:07:54;100715.38;;;-8.87;45.82
70458;BME280;57919;56.194;95.716;2023-03-22T15:18:09;100716.06;;;-9.00;46.19
70458;BME280;57919;56.194;95.716;2023-03-22T15:28:17;100709.59;;;-9.25;46.59
70458;BME280;57919;56.194;95.716;2023-03-22T15:38:37;100708.63;;;-9.30;46.75
70458;BME280;57919;56.194;95.716;2023-03-22T15:49:09;100705.78;;;-9.45;47.12
70458;BME280;57919;56.194;95.716;2023-03-22T15:59:28;100704.69;;;-9.59;47.53
70458;BME280;57919;56.194;95.716;2023-03-22T16:09:31;100689.31;;;-9.91;49.61
70458;BME280;57919;56.194;95.716;2023-03-22T16:19:33;100692.97;;;-10.29;50.17
70458;BME280;57919;56.194;95.716;2023-03-22T16:29:34;100695.53;;;-10.76;51.78
70458;BME280;57919;56.194;95.716;2023-03-22T16:39:36;100682.16;;;-11.30;53.52
70458;BME280;57919;56.194;95.716;2023-03-22T16:49:43;100687.66;;;-11.56;55.20
70458;BME280;57919;56.194;95.716;2023-03-22T16:59:45;100684.53;;;-11.77;55.25
70458;BME280;57919;56.194;95.716;2023-03-22T17:09:47;100681.38;;;-12.00;55.81
70458;BME280;57919;56.194;95.716;2023-03-22T17:19:49;100666.81;;;-12.25;56.52
70458;BME280;57919;56.194;95.716;2023-03-22T17:29:52;100661.28;;;-12.37;57.17
70458;BME280;57919;56.194;95.716;2023-03-22T17:39:54;100661.50;;;-12.61;57.11
70458;BME280;57919;56.194;95.716;2023-03-22T17:49:55;100661.19;;;-12.71;57.48
70458;BME280;57919;56.194;95.716;2023-03-22T17:59:57;100654.31;;;-12.69;57.54
70458;BME280;57919;56.194;95.716;2023-03-22T18:10:00;100641.53;;;-12.60;56.10
70458;BME280;57919;56.194;95.716;2023-03-22T18:20:08;100637.13;;;-12.63;56.33
70458;BME280;57919;56.194;95.716;2023-03-22T18:30:12;100631.78;;;-12.34;55.21
70458;BME280;57919;56.194;95.716;2023-03-22T18:40:16;100625.09;;;-12.25;54.46
70458;BME280;57919;56.194;95.716;2023-03-22T18:50:18;100606.53;;;-12.37;54.75
70458;BME280;57919;56.194;95.716;2023-03-22T19:00:21;100598.06;;;-12.61;55.17
70458;BME280;57919;56.194;95.716;2023-03-22T19:10:23;100599.22;;;-13.15;56.08
70458;BME280;57919;56.194;95.716;2023-03-22T19:20:25;100591.38;;;-13.16;56.49
70458;BME280;57919;56.194;95.716;2023-03-22T19:30:26;100570.78;;;-13.38;56.39
70458;BME280;57919;56.194;95.716;2023-03-22T19:40:29;100570.16;;;-13.60;56.72
70458;BME280;57919;56.194;95.716;2023-03-22T19:50:31;100570.66;;;-13.72;56.42
70458;BME280;57919;56.194;95.716;2023-03-22T20:00:32;100572.72;;;-13.90;56.75
70458;BME280;57919;56.194;95.716;2023-03-22T20:10:35;100572.66;;;-13.91;56.41
70458;BME280;57919;56.194;95.716;2023-03-22T20:20:37;100568.47;;;-14.15;56.61
70458;BME280;57919;56.194;95.716;2023-03-22T20:30:39;100565.25;;;-14.33;57.43
70458;BME280;57919;56.194;95.716;2023-03-22T20:40:43;100565.69;;;-14.48;58.39
70458;BME280;57919;56.194;95.716;2023-03-22T20:50:50;100558.06;;;-14.68;58.59
70458;BME280;57919;56.194;95.716;2023-03-22T21:00:55;100570.56;;;-14.82;58.54
70458;BME280;57919;56.194;95.716;2023-03-22T21:10:58;100576.97;;;-14.73;58.37
70458;BME280;57919;56.194;95.716;2023-03-22T21:21:05;100571.00;;;-14.70;58.09
70458;BME280;57919;56.194;95.716;2023-03-22T21:41:11;100581.13;;;-15.25;58.48
70458;BME280;57919;56.194;95.716;2023-03-22T21:51:14;100590.63;;;-15.26;58.08
70458;BME280;57919;56.194;95.716;2023-03-22T22:01:16;100597.03;;;-15.16;57.68
70458;BME280;57919;56.194;95.716;2023-03-22T22:11:19;100590.31;;;-15.11;57.08
70458;BME280;57919;56.194;95.716;2023-03-22T22:21:21;100594.16;;;-15.24;57.51
70458;BME280;57919;56.194;95.716;2023-03-22T22:31:25;100595.72;;;-15.29;57.44
70458;BME280;57919;56.194;95.716;2023-03-22T22:41:31;100589.63;;;-15.53;57.66
70458;BME280;57919;56.194;95.716;2023-03-22T22:51:33;100598.03;;;-15.83;58.90
70458;BME280;57919;56.194;95.716;2023-03-22T23:01:34;100586.34;;;-16.16;59.77
70458;BME280;57919;56.194;95.716;2023-03-22T23:11:37;100587.88;;;-16.42;61.15
70458;BME280;57919;56.194;95.716;2023-03-22T23:21:40;100579.16;;;-16.44;60.89
70458;BME280;57919;56.194;95.716;2023-03-22T23:31:46;100592.59;;;-16.32;60.41
70458;BME280;57919;56.194;95.716;2023-03-22T23:41:49;100578.78;;;-16.32;60.59
70458;BME280;57919;56.194;95.716;2023-03-22T23:51:51;100571.38;;;-16.44;60.56
